createdAt,value
2017-07-07T14:44:11.963Z,33.55
2017-07-07T14:45:12.405Z,33.43
2017-07-07T14:46:10.874Z,33.3
2017-07-07T14:47:11.213Z,33.23
2017-07-07T14:48:11.534Z,33.2
2017-07-07T14:49:10.896Z,33.2
2017-07-07T14:50:12.661Z,33.2
2017-07-07T14:51:11.563Z,33.12
2017-07-07T14:52:11.563Z,33.05
2017-07-07T14:53:10.937Z,33.04
2017-07-07T14:54:11.249Z,33.01
2017-07-07T14:55:12.689Z,32.95
2017-07-07T14:56:11.263Z,33.04
2017-07-07T14:57:11.270Z,33.07
2017-07-07T14:58:11.279Z,33.15
2017-07-07T14:59:11.729Z,33.04
2017-07-07T15:00:12.091Z,32.95
2017-07-07T15:01:10.990Z,32.77
2017-07-07T15:02:10.989Z,32.71
2017-07-07T15:03:11.673Z,32.56
2017-07-07T15:04:11.350Z,32.58
2017-07-07T15:05:11.822Z,32.6
2017-07-07T15:06:12.074Z,32.65
2017-07-07T15:07:11.347Z,32.74
2017-07-07T15:08:11.035Z,32.71
2017-07-07T15:09:11.365Z,32.77
2017-07-07T15:10:12.613Z,32.85
2017-07-07T15:11:11.384Z,32.83
2017-07-07T15:12:11.388Z,32.83
2017-07-07T15:13:11.401Z,32.82
2017-07-07T15:14:11.938Z,32.9
2017-07-07T15:15:12.963Z,33.02
2017-07-07T15:16:11.748Z,33.05
2017-07-07T15:17:11.434Z,33.12
2017-07-07T15:18:11.458Z,33.17
2017-07-07T15:19:11.131Z,33.39
2017-07-07T15:20:12.558Z,33.32
2017-07-07T15:21:11.464Z,33.32
2017-07-07T15:22:11.149Z,33.3
2017-07-07T15:23:11.159Z,33.3
2017-07-07T15:24:12.319Z,33.28
2017-07-07T15:25:13.209Z,33.36
2017-07-07T15:26:11.830Z,33.34
2017-07-07T15:27:11.195Z,33.43
2017-07-07T15:28:11.855Z,33.34
2017-07-07T15:29:11.850Z,33.37
2017-07-07T15:30:12.675Z,33.5
2017-07-07T15:31:11.550Z,33.5
2017-07-07T15:32:11.883Z,33.49
2017-07-07T15:33:11.381Z,33.57
2017-07-07T15:34:11.889Z,33.53
2017-07-07T15:35:12.946Z,33.52
2017-07-07T15:36:11.586Z,33.59
2017-07-07T15:37:11.595Z,33.62
2017-07-07T15:38:11.289Z,33.8
2017-07-07T15:39:11.958Z,33.92
2017-07-07T15:40:13.080Z,33.92
2017-07-07T15:41:11.629Z,33.92
2017-07-07T15:42:11.959Z,33.8
2017-07-07T15:43:11.323Z,33.67
2017-07-07T15:44:11.338Z,33.49
2017-07-07T15:45:12.240Z,33.37
2017-07-07T15:46:11.686Z,33.27
2017-07-07T15:47:11.692Z,33.12
2017-07-07T15:48:12.012Z,33.02
2017-07-07T15:49:12.013Z,32.93
2017-07-07T15:50:13.210Z,32.83
2017-07-07T15:51:11.713Z,32.86
2017-07-07T15:52:11.735Z,32.78
2017-07-07T15:53:11.729Z,32.85
2017-07-07T15:54:11.416Z,32.85
2017-07-07T15:55:13.132Z,32.85
2017-07-07T15:56:11.765Z,32.7
2017-07-07T15:57:11.770Z,32.75
2017-07-07T15:58:12.090Z,32.73
2017-07-07T15:59:11.776Z,32.73
2017-07-07T16:00:17.518Z,32.71
2017-07-07T16:01:11.475Z,32.65
2017-07-07T16:02:11.803Z,32.6
2017-07-07T16:03:11.812Z,32.46
2017-07-07T16:04:12.136Z,32.16
2017-07-07T16:05:13.635Z,31.94
2017-07-07T16:06:11.845Z,31.78
2017-07-07T16:07:12.164Z,31.8
2017-07-07T16:08:11.529Z,31.64
2017-07-07T16:09:12.183Z,31.65
2017-07-07T16:10:12.903Z,31.62
2017-07-07T16:11:12.188Z,31.7
2017-07-07T16:12:11.557Z,31.66
2017-07-07T16:13:11.903Z,31.64
2017-07-07T16:14:12.221Z,31.64
2017-07-07T16:15:14.066Z,31.74
2017-07-07T16:16:12.238Z,31.81
2017-07-07T16:17:11.599Z,31.8
2017-07-07T16:18:12.246Z,31.74
2017-07-07T16:19:12.250Z,31.81
2017-07-07T16:20:12.692Z,31.87
2017-07-07T16:21:11.958Z,31.71
2017-07-07T16:22:12.275Z,31.87
2017-07-07T16:23:11.965Z,31.77
2017-07-07T16:24:11.973Z,31.84
2017-07-07T16:25:12.893Z,31.77
2017-07-07T16:26:11.986Z,31.8
2017-07-07T16:27:11.994Z,31.74
2017-07-07T16:28:11.686Z,31.78
2017-07-07T16:29:12.330Z,31.8
2017-07-07T16:30:13.272Z,31.69
2017-07-07T16:31:12.074Z,31.73
2017-07-07T16:32:12.040Z,31.7
2017-07-07T16:33:12.047Z,31.69
2017-07-07T16:34:12.372Z,31.66
2017-07-07T16:35:13.694Z,31.47
2017-07-07T16:36:11.755Z,31.42
2017-07-07T16:37:12.403Z,31.42
2017-07-07T16:38:12.409Z,31.33
2017-07-07T16:39:12.087Z,31.22
2017-07-07T16:40:13.126Z,31.15
2017-07-07T16:41:12.424Z,30.94
2017-07-07T16:42:12.432Z,30.96
2017-07-07T16:43:12.144Z,30.9
2017-07-07T16:44:12.129Z,30.9
2017-07-07T16:45:13.811Z,30.78
2017-07-07T16:46:14.198Z,30.75
2017-07-07T16:47:12.154Z,30.63
2017-07-07T16:48:12.475Z,30.57
2017-07-07T16:49:12.171Z,30.46
2017-07-07T16:50:13.917Z,30.39
2017-07-07T16:51:12.502Z,30.44
2017-07-07T16:52:12.202Z,30.44
2017-07-07T16:53:12.203Z,30.43
2017-07-07T16:54:12.536Z,30.34
2017-07-07T16:55:13.983Z,30.24
2017-07-07T16:56:12.218Z,30.27
2017-07-07T16:57:12.230Z,30.21
2017-07-07T16:58:12.235Z,30.12
2017-07-07T16:59:11.926Z,30.06
2017-07-07T17:00:13.546Z,30.05
2017-07-07T17:01:13.302Z,30.06
2017-07-07T17:02:12.581Z,29.97
2017-07-07T17:03:38.104Z,30.02
2017-07-07T17:04:12.277Z,30.02
2017-07-07T17:05:13.586Z,29.98
2017-07-07T17:06:12.294Z,29.91
2017-07-07T17:07:12.296Z,29.86
2017-07-07T17:08:12.631Z,29.88
2017-07-07T17:09:11.986Z,29.88
2017-07-07T17:10:13.088Z,29.87
2017-07-07T17:11:12.322Z,29.86
2017-07-07T17:12:12.329Z,29.86
2017-07-07T17:13:12.654Z,29.76
2017-07-07T17:14:12.666Z,29.87
2017-07-07T17:15:13.388Z,29.72
2017-07-07T17:16:16.283Z,29.6
2017-07-07T17:17:12.679Z,29.57
2017-07-07T17:18:12.686Z,29.49
2017-07-07T17:19:12.707Z,29.36
2017-07-07T17:20:14.176Z,29.31
2017-07-07T17:21:12.063Z,29.16
2017-07-07T17:22:12.394Z,29.02
2017-07-07T17:23:12.424Z,28.97
2017-07-07T17:24:12.403Z,28.98
2017-07-07T17:25:13.844Z,28.96
2017-07-07T17:26:12.742Z,29.07
2017-07-07T17:27:12.425Z,29.01
2017-07-07T17:28:12.437Z,29.01
2017-07-07T17:29:12.449Z,28.97
2017-07-07T17:30:13.888Z,29.01
2017-07-07T17:31:12.450Z,28.96
2017-07-07T17:32:12.459Z,29.05
2017-07-07T17:33:12.461Z,28.96
2017-07-07T17:34:12.486Z,28.94
2017-07-07T17:35:13.727Z,28.96
2017-07-07T17:36:12.806Z,28.96
2017-07-07T17:37:12.809Z,28.96
2017-07-07T17:38:12.497Z,28.97
2017-07-07T17:39:12.842Z,28.96
2017-07-07T17:40:13.876Z,28.97
2017-07-07T17:41:12.835Z,29.02
2017-07-07T17:42:12.867Z,29.04
2017-07-07T17:43:12.522Z,29.08
2017-07-07T17:44:12.866Z,29.1
2017-07-07T17:45:13.668Z,29.19
2017-07-07T17:46:12.543Z,29.19
2017-07-07T17:47:13.429Z,29.29
2017-07-07T17:48:12.596Z,29.35
2017-07-07T17:49:13.043Z,29.36
2017-07-07T17:50:13.702Z,29.39
2017-07-07T17:51:12.922Z,29.49
2017-07-07T17:52:14.386Z,29.51
2017-07-07T17:53:12.596Z,29.61
2017-07-07T17:54:12.919Z,29.49
2017-07-07T17:55:13.961Z,29.56
2017-07-07T17:56:13.001Z,29.49
2017-07-07T17:57:12.301Z,29.68
2017-07-07T17:58:12.624Z,29.65
2017-07-07T17:59:12.645Z,29.6
2017-07-07T18:00:13.673Z,29.68
2017-07-07T18:01:12.974Z,29.54
2017-07-07T18:02:12.861Z,29.61
2017-07-07T18:03:12.994Z,29.57
2017-07-07T18:04:12.673Z,29.71
2017-07-07T18:05:14.165Z,29.73
2017-07-07T18:06:12.683Z,29.66
2017-07-07T18:07:12.682Z,29.75
2017-07-07T18:08:12.693Z,29.61
2017-07-07T18:09:13.036Z,29.68
2017-07-07T18:10:13.283Z,29.63
2017-07-07T18:11:12.743Z,29.5
2017-07-07T18:12:12.770Z,29.6
2017-07-07T18:13:13.129Z,29.41
2017-07-07T18:14:12.764Z,29.47
2017-07-07T18:15:14.578Z,29.32
2017-07-07T18:16:12.749Z,29.22
2017-07-07T18:17:13.118Z,29.2
2017-07-07T18:18:12.796Z,29.12
2017-07-07T18:19:13.398Z,29.07
2017-07-07T18:20:14.978Z,28.94
2017-07-07T18:21:12.488Z,28.94
2017-07-07T18:22:12.839Z,28.89
2017-07-07T18:23:12.470Z,28.88
2017-07-07T18:24:12.813Z,28.78
2017-07-07T18:25:14.218Z,28.85
2017-07-07T18:26:12.807Z,28.89
2017-07-07T18:27:12.813Z,28.88
2017-07-07T18:28:12.821Z,28.75
2017-07-07T18:29:13.158Z,28.84
2017-07-07T18:30:13.526Z,28.81
2017-07-07T18:31:12.525Z,28.81
2017-07-07T18:32:13.852Z,28.78
2017-07-07T18:33:13.190Z,28.89
2017-07-07T18:34:12.541Z,28.86
2017-07-07T18:35:14.036Z,28.86
2017-07-07T18:36:12.874Z,28.98
2017-07-07T18:37:12.878Z,28.98
2017-07-07T18:38:12.563Z,28.98
2017-07-07T18:39:12.896Z,28.94
2017-07-07T18:40:13.851Z,28.85
2017-07-07T18:41:13.250Z,28.7
2017-07-07T18:42:12.910Z,28.45
2017-07-07T18:43:12.914Z,28.23
2017-07-07T18:44:12.925Z,27.93
2017-07-07T18:45:14.520Z,27.65
2017-07-07T18:46:13.260Z,27.27
2017-07-07T18:47:12.939Z,27.07
2017-07-07T18:48:12.948Z,26.92
2017-07-07T18:49:13.268Z,26.74
2017-07-07T18:50:14.783Z,26.47
2017-07-07T18:51:12.651Z,26.06
2017-07-07T18:52:12.963Z,25.98
2017-07-07T18:53:12.650Z,25.83
2017-07-07T18:54:13.299Z,25.68
2017-07-07T18:55:14.208Z,25.62
2017-07-07T18:56:13.020Z,25.62
2017-07-07T18:57:12.992Z,25.51
2017-07-07T18:58:13.329Z,25.44
2017-07-07T18:59:13.322Z,25.48
2017-07-07T19:00:14.839Z,25.4
2017-07-07T19:01:13.335Z,25.4
2017-07-07T19:02:13.024Z,25.4
2017-07-07T19:03:13.344Z,25.36
2017-07-07T19:04:13.362Z,25.36
2017-07-07T19:05:14.493Z,25.4
2017-07-07T19:06:13.052Z,25.46
2017-07-07T19:07:13.042Z,25.44
2017-07-07T19:08:12.733Z,25.44
2017-07-07T19:09:13.061Z,25.47
2017-07-07T19:10:15.169Z,25.43
2017-07-07T19:11:12.741Z,25.43
2017-07-07T19:12:12.763Z,25.44
2017-07-07T19:13:13.077Z,25.41
2017-07-07T19:14:12.769Z,25.32
2017-07-07T19:15:14.360Z,25.38
2017-07-07T19:16:12.770Z,25.4
2017-07-07T19:17:13.415Z,25.28
2017-07-07T19:18:13.439Z,25.31
2017-07-07T19:19:13.435Z,25.29
2017-07-07T19:20:15.017Z,25.31
2017-07-07T19:21:13.123Z,25.29
2017-07-07T19:22:13.120Z,25.29
2017-07-07T19:23:12.806Z,25.28
2017-07-07T19:24:12.809Z,25.28
2017-07-07T19:25:14.400Z,25.33
2017-07-07T19:26:13.137Z,25.41
2017-07-07T19:27:13.144Z,25.41
2017-07-07T19:28:13.148Z,25.36
2017-07-07T19:29:13.473Z,25.43
2017-07-07T19:30:14.467Z,25.55
2017-07-07T19:31:12.849Z,25.6
2017-07-07T19:32:13.485Z,25.65
2017-07-07T19:33:13.557Z,25.69
2017-07-07T19:34:13.505Z,25.72
2017-07-07T19:35:14.893Z,25.84
2017-07-07T19:36:12.867Z,25.85
2017-07-07T19:37:13.261Z,25.91
2017-07-07T19:38:13.521Z,25.93
2017-07-07T19:39:13.520Z,26.1
2017-07-07T19:40:15.142Z,26.06
2017-07-07T19:41:13.218Z,26.09
2017-07-07T19:42:13.271Z,26.06
2017-07-07T19:43:13.595Z,26.09
2017-07-07T19:44:13.573Z,25.96
2017-07-07T19:45:14.746Z,25.93
2017-07-07T19:46:13.558Z,25.77
2017-07-07T19:47:13.563Z,25.78
2017-07-07T19:48:13.679Z,25.7
2017-07-07T19:49:13.634Z,25.66
2017-07-07T19:50:14.758Z,25.53
2017-07-07T19:51:13.324Z,25.54
2017-07-07T19:52:12.950Z,25.46
2017-07-07T19:53:13.271Z,25.36
2017-07-07T19:54:13.594Z,25.25
2017-07-07T19:55:15.690Z,25.14
2017-07-07T19:56:13.290Z,25.11
2017-07-07T19:57:13.288Z,25.03
2017-07-07T19:58:13.292Z,24.98
2017-07-07T19:59:13.303Z,24.86
2017-07-07T20:00:15.046Z,24.85
2017-07-07T20:01:13.624Z,24.89
2017-07-07T20:02:13.309Z,24.74
2017-07-07T20:03:17.901Z,24.74
2017-07-07T20:04:13.658Z,24.73
2017-07-07T20:05:14.860Z,24.58
2017-07-07T20:06:13.009Z,24.6
2017-07-07T20:07:13.017Z,24.54
2017-07-07T20:08:13.351Z,24.47
2017-07-07T20:09:13.682Z,24.53
2017-07-07T20:10:15.554Z,24.43
2017-07-07T20:11:13.353Z,24.4
2017-07-07T20:12:13.044Z,24.4
2017-07-07T20:13:13.691Z,24.33
2017-07-07T20:14:13.367Z,24.35
2017-07-07T20:15:14.502Z,24.33
2017-07-07T20:16:13.465Z,24.18
2017-07-07T20:17:13.714Z,24.08
2017-07-07T20:18:13.831Z,24.06
2017-07-07T20:19:13.390Z,24.02
2017-07-07T20:20:14.039Z,23.96
2017-07-07T20:21:13.902Z,23.99
2017-07-07T20:22:13.453Z,23.92
2017-07-07T20:23:13.456Z,23.92
2017-07-07T20:24:13.734Z,23.88
2017-07-07T20:25:14.476Z,23.91
2017-07-07T20:26:13.432Z,23.78
2017-07-07T20:27:13.115Z,23.86
2017-07-07T20:28:13.436Z,23.81
2017-07-07T20:29:13.488Z,23.78
2017-07-07T20:30:14.497Z,23.84
2017-07-07T20:31:13.442Z,23.86
2017-07-07T20:32:13.444Z,23.93
2017-07-07T20:33:13.750Z,23.81
2017-07-07T20:34:13.484Z,23.92
2017-07-07T20:35:15.031Z,23.88
2017-07-07T20:36:13.460Z,23.95
2017-07-07T20:37:13.466Z,23.87
2017-07-07T20:38:13.470Z,23.81
2017-07-07T20:39:13.484Z,23.81
2017-07-07T20:40:15.646Z,23.76
2017-07-07T20:41:13.819Z,23.74
2017-07-07T20:42:13.816Z,23.77
2017-07-07T20:43:13.496Z,23.81
2017-07-07T20:44:13.569Z,23.8
2017-07-07T20:45:15.781Z,23.76
2017-07-07T20:46:13.191Z,23.77
2017-07-07T20:47:13.186Z,23.77
2017-07-07T20:48:14.711Z,23.74
2017-07-07T20:49:13.511Z,23.78
2017-07-07T20:50:14.441Z,23.77
2017-07-07T20:51:13.857Z,23.77
2017-07-07T20:52:13.530Z,23.77
2017-07-07T20:53:13.859Z,23.78
2017-07-07T20:54:13.535Z,23.78
2017-07-07T20:55:15.155Z,23.77
2017-07-07T20:56:13.546Z,23.71
2017-07-07T20:57:13.568Z,23.8
2017-07-07T20:58:13.876Z,23.66
2017-07-07T20:59:13.949Z,23.65
2017-07-07T21:00:14.690Z,23.77
2017-07-07T21:01:13.888Z,23.65
2017-07-07T21:02:13.908Z,23.59
2017-07-07T21:03:13.580Z,23.65
2017-07-07T21:04:13.578Z,23.66
2017-07-07T21:05:15.340Z,23.62
2017-07-07T21:06:13.590Z,23.44
2017-07-07T21:07:13.280Z,23.58
2017-07-07T21:08:13.602Z,23.55
2017-07-07T21:09:13.923Z,23.56
2017-07-07T21:10:15.149Z,23.54
